createdAt,value
2023-01-31T00:01:36.396Z,2.45
2023-01-31T00:06:38.710Z,3.17
2023-01-31T00:11:36.198Z,3.40
2023-01-31T00:16:33.128Z,3.08
2023-01-31T00:21:31.061Z,2.63
2023-01-31T00:26:33.024Z,2.10
2023-01-31T00:31:31.967Z,5.55
2023-01-31T00:36:31.274Z,3.80
2023-01-31T00:41:30.002Z,2.50
2023-01-31T00:46:26.923Z,3.63
2023-01-31T00:51:26.681Z,2.42
2023-01-31T00:56:24.574Z,2.72
2023-01-31T01:01:26.839Z,2.75
2023-01-31T01:06:23.887Z,2.45
2023-01-31T01:11:23.302Z,2.35
2023-01-31T01:16:23.437Z,3.35
2023-01-31T01:21:25.692Z,4.15
2023-01-31T01:26:30.958Z,2.70
2023-01-31T01:31:31.503Z,2.50
2023-01-31T01:36:29.322Z,1.90
2023-01-31T01:41:26.150Z,3.47
2023-01-31T01:46:33.889Z,3.80
2023-01-31T01:51:33.801Z,2.20
2023-01-31T01:56:36.522Z,2.15
2023-01-31T02:01:36.270Z,3.58
2023-01-31T02:06:32.996Z,2.80
2023-01-31T02:11:31.278Z,3.88
2023-01-31T02:16:28.063Z,2.25
2023-01-31T02:21:24.411Z,3.00
2023-01-31T02:26:44.835Z,2.25
2023-01-31T02:31:46.873Z,2.15
2023-01-31T02:36:49.379Z,2.20
2023-01-31T02:41:56.727Z,2.33
2023-01-31T02:47:06.860Z,2.47
2023-01-31T02:52:16.216Z,3.13
2023-01-31T02:57:12.617Z,4.45
2023-01-31T03:02:09.428Z,4.00
2023-01-31T03:07:13.597Z,3.30
2023-01-31T03:12:31.773Z,3.20
2023-01-31T03:18:00.627Z,4.35
2023-01-31T03:23:04.885Z,2.78
2023-01-31T03:28:06.348Z,3.35
2023-01-31T03:33:13.477Z,3.20
2023-01-31T03:38:25.975Z,2.67
2023-01-31T03:43:33.168Z,3.13
2023-01-31T03:48:35.300Z,2.55
2023-01-31T03:53:40.613Z,2.60
2023-01-31T03:58:43.608Z,3.63
2023-01-31T04:03:43.988Z,3.75
2023-01-31T04:08:40.883Z,3.03
2023-01-31T04:13:37.295Z,3.45
2023-01-31T04:18:36.639Z,2.80
2023-01-31T04:23:34.012Z,2.50
2023-01-31T04:28:30.767Z,3.00
2023-01-31T04:33:27.131Z,3.22
2023-01-31T04:38:23.557Z,2.85
2023-01-31T04:43:19.897Z,3.60
2023-01-31T04:48:16.317Z,3.72
2023-01-31T04:53:12.744Z,4.13
2023-01-31T04:58:09.134Z,3.83
2023-01-31T05:03:06.132Z,2.95
2023-01-31T05:08:03.356Z,3.13
2023-01-31T05:12:59.752Z,3.03
2023-01-31T05:18:02.969Z,3.80
2023-01-31T05:23:00.278Z,3.75
2023-01-31T05:27:57.399Z,2.97
2023-01-31T05:32:54.053Z,3.60
2023-01-31T05:37:50.439Z,3.17
2023-01-31T05:42:54.318Z,4.00
2023-01-31T05:47:50.724Z,3.95
2023-01-31T05:52:55.861Z,4.70
2023-01-31T05:57:53.566Z,4.55
2023-01-31T06:02:50.382Z,3.47
2023-01-31T06:07:46.788Z,3.28
2023-01-31T06:12:43.117Z,4.97
2023-01-31T06:17:39.475Z,4.68
2023-01-31T06:22:36.428Z,6.15
2023-01-31T06:27:33.977Z,5.95
2023-01-31T06:32:30.598Z,4.38
2023-01-31T06:37:27.265Z,4.95
2023-01-31T06:42:23.711Z,4.88
2023-01-31T06:47:20.139Z,4.47
2023-01-31T06:52:16.470Z,5.55
2023-01-31T06:57:12.852Z,5.00
2023-01-31T07:02:11.273Z,5.15
2023-01-31T07:07:07.647Z,5.68
2023-01-31T07:12:04.319Z,5.15
2023-01-31T07:17:00.779Z,6.07
2023-01-31T07:21:57.263Z,6.95
2023-01-31T07:26:54.326Z,5.00
2023-01-31T07:31:51.380Z,5.70
2023-01-31T07:36:47.784Z,4.97
2023-01-31T07:41:44.289Z,5.65
2023-01-31T07:46:40.849Z,5.85
2023-01-31T07:51:38.887Z,7.32
2023-01-31T07:56:35.235Z,6.03
2023-01-31T08:01:50.958Z,6.20
2023-01-31T08:06:48.332Z,5.70
2023-01-31T08:11:44.737Z,6.55
2023-01-31T08:16:41.255Z,7.55
2023-01-31T08:21:37.793Z,7.60
2023-01-31T08:26:34.353Z,7.22
2023-01-31T08:31:31.422Z,6.10
2023-01-31T08:36:31.784Z,5.97
2023-01-31T08:41:30.459Z,7.53
2023-01-31T08:46:33.856Z,6.43
2023-01-31T08:51:30.590Z,6.22
2023-01-31T08:56:28.057Z,7.47
2023-01-31T09:01:24.753Z,6.25
2023-01-31T09:06:25.877Z,5.85
2023-01-31T09:11:22.356Z,6.25
2023-01-31T09:16:19.771Z,5.72
2023-01-31T09:21:19.052Z,7.97
2023-01-31T09:26:16.439Z,6.88
2023-01-31T09:31:15.802Z,7.88
2023-01-31T09:36:16.853Z,7.50
2023-01-31T09:41:23.687Z,7.13
2023-01-31T09:46:23.881Z,6.50
2023-01-31T09:51:21.420Z,7.55
2023-01-31T09:56:25.160Z,7.32
2023-01-31T10:01:48.607Z,8.75
2023-01-31T10:07:01.125Z,6.80
2023-01-31T10:12:07.657Z,10.23
2023-01-31T10:17:32.725Z,9.20
2023-01-31T10:22:45.518Z,6.82
2023-01-31T10:27:51.224Z,7.72
2023-01-31T10:32:53.808Z,6.88
2023-01-31T10:37:55.684Z,8.45
2023-01-31T10:43:00.357Z,7.05
2023-01-31T10:48:14.146Z,9.35
2023-01-31T10:53:27.098Z,8.82
2023-01-31T10:58:24.030Z,8.85
2023-01-31T11:03:21.107Z,9.90
2023-01-31T11:08:32.810Z,9.73
2023-01-31T11:13:29.290Z,8.05
2023-01-31T11:18:36.665Z,9.18
2023-01-31T11:23:35.457Z,9.98
2023-01-31T11:28:41.366Z,10.88
2023-01-31T11:33:47.666Z,9.23
2023-01-31T11:38:44.129Z,9.75
2023-01-31T11:43:42.450Z,9.18
2023-01-31T11:48:44.204Z,12.27
2023-01-31T11:53:43.278Z,9.50
2023-01-31T11:58:41.619Z,10.18
2023-01-31T12:03:48.731Z,11.43
2023-01-31T12:08:55.240Z,12.30
2023-01-31T12:14:00.835Z,13.07
2023-01-31T12:19:20.535Z,11.65
2023-01-31T12:24:37.270Z,13.52
2023-01-31T12:30:06.469Z,12.27
2023-01-31T12:35:43.177Z,15.27
2023-01-31T12:40:42.292Z,15.32
2023-01-31T12:46:07.262Z,14.23
2023-01-31T12:51:28.094Z,13.88
2023-01-31T12:56:48.976Z,15.38
2023-01-31T13:01:55.030Z,15.38
2023-01-31T13:06:57.651Z,17.65
2023-01-31T13:12:09.648Z,18.00
2023-01-31T13:17:12.372Z,19.23
2023-01-31T13:22:41.156Z,19.13
2023-01-31T13:32:48.651Z,20.00
2023-01-31T13:37:49.695Z,22.33
2023-01-31T13:42:46.096Z,19.38
2023-01-31T13:47:54.678Z,19.50
2023-01-31T13:52:57.138Z,17.75
2023-01-31T13:58:00.110Z,18.33
2023-01-31T14:03:04.986Z,17.55
2023-01-31T14:08:26.251Z,18.10
2023-01-31T14:13:36.479Z,18.23
2023-01-31T14:18:40.085Z,16.73
2023-01-31T14:23:47.330Z,15.05
2023-01-31T14:28:44.111Z,15.15
2023-01-31T14:33:48.516Z,14.48
2023-01-31T14:39:16.688Z,13.80
2023-01-31T14:44:32.125Z,13.05
2023-01-31T14:49:47.218Z,11.25
2023-01-31T14:55:24.134Z,11.90
2023-01-31T15:00:26.632Z,10.57
2023-01-31T15:05:41.784Z,11.52
2023-01-31T15:11:03.118Z,12.10
2023-01-31T15:16:00.885Z,12.63
2023-01-31T15:21:01.096Z,12.68
2023-01-31T15:25:59.957Z,11.93
2023-01-31T15:36:05.203Z,11.63
2023-01-31T15:41:26.677Z,12.05
2023-01-31T15:46:30.745Z,12.57
2023-01-31T15:51:28.456Z,11.73
2023-01-31T15:56:26.921Z,12.30
2023-01-31T16:01:23.423Z,10.75
2023-01-31T16:06:38.235Z,12.18
2023-01-31T16:11:35.673Z,12.13
2023-01-31T16:16:35.193Z,12.27
2023-01-31T16:21:34.489Z,11.45
2023-01-31T16:26:34.101Z,12.95
2023-01-31T16:31:35.935Z,12.07
2023-01-31T16:36:52.321Z,13.23
2023-01-31T16:41:52.502Z,14.10
2023-01-31T16:46:51.122Z,14.23
2023-01-31T16:51:48.504Z,13.73
2023-01-31T16:56:46.553Z,14.90
2023-01-31T17:01:43.098Z,12.53
2023-01-31T17:06:48.641Z,15.02
2023-01-31T17:11:46.987Z,12.68
2023-01-31T17:16:43.433Z,12.30
2023-01-31T17:21:41.776Z,10.75
2023-01-31T17:26:38.323Z,9.68
2023-01-31T17:31:34.877Z,9.98
2023-01-31T17:36:31.331Z,11.02
2023-01-31T17:41:28.019Z,10.10
2023-01-31T17:46:24.441Z,9.38
2023-01-31T17:51:20.837Z,10.45
2023-01-31T17:56:17.891Z,10.40
2023-01-31T18:01:14.570Z,9.25
2023-01-31T18:06:11.092Z,10.15
2023-01-31T18:11:10.113Z,7.95
2023-01-31T18:16:09.118Z,7.97
2023-01-31T18:21:09.201Z,6.50
2023-01-31T18:26:10.308Z,7.18
2023-01-31T18:31:10.685Z,6.05
2023-01-31T18:36:09.906Z,6.22
2023-01-31T18:41:07.605Z,6.40
2023-01-31T18:46:05.436Z,6.45
2023-01-31T18:51:07.728Z,6.05
2023-01-31T18:56:07.316Z,4.95
2023-01-31T19:01:19.730Z,4.13
2023-01-31T19:06:18.548Z,4.35
2023-01-31T19:16:17.701Z,5.55
2023-01-31T19:21:23.109Z,5.40
2023-01-31T19:26:19.530Z,5.50
2023-01-31T19:31:18.795Z,5.53
2023-01-31T19:36:17.799Z,3.50
2023-01-31T19:41:20.868Z,4.20
2023-01-31T19:46:18.148Z,3.97
2023-01-31T19:51:16.851Z,3.30
2023-01-31T19:56:14.009Z,3.35
2023-01-31T20:01:16.077Z,2.95
2023-01-31T20:06:15.576Z,2.97
2023-01-31T20:11:11.931Z,1.98
2023-01-31T20:16:11.117Z,3.33
2023-01-31T20:21:12.798Z,2.60
2023-01-31T20:26:11.784Z,4.22
2023-01-31T20:31:10.496Z,2.88
2023-01-31T20:36:07.545Z,3.70
2023-01-31T20:41:05.705Z,3.20
2023-01-31T20:46:04.483Z,2.60
2023-01-31T20:51:01.101Z,1.88
2023-01-31T20:56:01.293Z,2.03
2023-01-31T21:00:59.914Z,2.40
2023-01-31T21:06:00.342Z,3.50
2023-01-31T21:10:58.510Z,3.08
2023-01-31T21:15:58.406Z,3.40
2023-01-31T21:20:56.044Z,2.75
2023-01-31T21:25:52.604Z,2.30
2023-01-31T21:30:59.933Z,3.53
2023-01-31T21:35:58.201Z,3.28
2023-01-31T21:41:14.709Z,2.03
2023-01-31T21:46:12.412Z,2.28
2023-01-31T21:51:10.732Z,3.50
2023-01-31T21:56:13.219Z,2.75
2023-01-31T22:01:31.015Z,2.65
2023-01-31T22:06:31.645Z,3.50
2023-01-31T22:11:33.279Z,3.35
2023-01-31T22:16:30.324Z,2.92
2023-01-31T22:21:31.712Z,3.08
2023-01-31T22:26:32.974Z,3.03
2023-01-31T22:31:30.751Z,2.65
2023-01-31T22:36:27.389Z,2.70
2023-01-31T22:41:23.823Z,2.42
2023-01-31T22:46:24.098Z,3.15
2023-01-31T22:51:23.335Z,2.85
2023-01-31T22:56:22.229Z,2.85
2023-01-31T23:06:17.951Z,2.55
2023-01-31T23:11:16.733Z,2.53
2023-01-31T23:16:19.946Z,2.65
2023-01-31T23:21:19.081Z,4.30
2023-01-31T23:26:15.705Z,3.10
2023-01-31T23:31:12.171Z,2.92
2023-01-31T23:36:08.998Z,3.67
2023-01-31T23:41:05.342Z,2.35
2023-01-31T23:46:01.766Z,3.03
2023-01-31T23:51:05.303Z,4.68
2023-01-31T23:56:01.749Z,3.33
